sensor_id;sensor_type;location;lat;lon;timestamp;P1;durP1;ratioP1;P2;durP2;ratioP2
20397;SDS011;10358;49.590;11.030;2024-02-23T00:00:03;2.13;;;0.70;;
20397;SDS011;10358;49.590;11.030;2024-02-23T00:02:30;1.57;;;0.67;;
20397;SDS011;10358;49.590;11.030;2024-02-23T00:04:56;0.53;;;0.50;;
20397;SDS011;10358;49.590;11.030;2024-02-23T00:07:22;1.93;;;0.50;;
20397;SDS011;10358;49.590;11.030;2024-02-23T00:09:47;0.70;;;0.30;;
20397;SDS011;10358;49.590;11.030;2024-02-23T00:12:14;1.20;;;0.50;;
20397;SDS011;10358;49.590;11.030;2024-02-23T00:14:40;1.37;;;0.60;;
20397;SDS011;10358;49.590;11.030;2024-02-23T00:17:05;0.60;;;0.43;;
20397;SDS011;10358;49.590;11.030;2024-02-23T00:19:31;0.33;;;0.30;;
20397;SDS011;10358;49.590;11.030;2024-02-23T00:21:57;2.87;;;0.50;;
20397;SDS011;10358;49.590;11.030;2024-02-23T00:24:27;2.50;;;0.60;;
20397;SDS011;10358;49.590;11.030;2024-02-23T00:26:53;1.03;;;0.40;;
20397;SDS011;10358;49.590;11.030;2024-02-23T00:29:19;0.83;;;0.43;;
20397;SDS011;10358;49.590;11.030;2024-02-23T00:31:44;0.50;;;0.20;;
20397;SDS011;10358;49.590;11.030;2024-02-23T00:34:12;1.00;;;0.30;;
20397;SDS011;10358;49.590;11.030;2024-02-23T00:36:41;0.60;;;0.30;;
20397;SDS011;10358;49.590;11.030;2024-02-23T00:39:09;0.40;;;0.40;;
20397;SDS011;10358;49.590;11.030;2024-02-23T00:41:36;1.13;;;0.50;;
20397;SDS011;10358;49.590;11.030;2024-02-23T00:44:02;0.83;;;0.30;;
20397;SDS011;10358;49.590;11.030;2024-02-23T00:46:28;0.70;;;0.40;;
20397;SDS011;10358;49.590;11.030;2024-02-23T00:48:54;0.43;;;0.30;;
20397;SDS011;10358;49.590;11.030;2024-02-23T00:51:20;1.30;;;0.30;;
20397;SDS011;10358;49.590;11.030;2024-02-23T00:53:46;1.70;;;0.40;;
20397;SDS011;10358;49.590;11.030;2024-02-23T00:56:12;1.07;;;0.40;;
20397;SDS011;10358;49.590;11.030;2024-02-23T00:58:38;0.67;;;0.40;;
20397;SDS011;10358;49.590;11.030;2024-02-23T01:01:04;1.33;;;0.57;;
20397;SDS011;10358;49.590;11.030;2024-02-23T01:03:29;0.80;;;0.50;;
20397;SDS011;10358;49.590;11.030;2024-02-23T01:05:55;2.27;;;0.50;;
20397;SDS011;10358;49.590;11.030;2024-02-23T01:08:20;0.97;;;0.60;;
20397;SDS011;10358;49.590;11.030;2024-02-23T01:10:46;1.00;;;0.50;;
20397;SDS011;10358;49.590;11.030;2024-02-23T01:13:12;0.83;;;0.50;;
20397;SDS011;10358;49.590;11.030;2024-02-23T01:15:37;1.80;;;0.50;;
20397;SDS011;10358;49.590;11.030;2024-02-23T01:18:03;0.40;;;0.40;;
20397;SDS011;10358;49.590;11.030;2024-02-23T01:20:31;2.07;;;0.53;;
20397;SDS011;10358;49.590;11.030;2024-02-23T01:22:56;0.30;;;0.30;;
20397;SDS011;10358;49.590;11.030;2024-02-23T01:25:22;0.50;;;0.50;;
20397;SDS011;10358;49.590;11.030;2024-02-23T01:27:47;1.40;;;0.43;;
20397;SDS011;10358;49.590;11.030;2024-02-23T01:30:13;1.17;;;0.50;;
20397;SDS011;10358;49.590;11.030;2024-02-23T01:32:39;0.50;;;0.47;;
20397;SDS011;10358;49.590;11.030;2024-02-23T01:35:05;0.50;;;0.50;;
20397;SDS011;10358;49.590;11.030;2024-02-23T01:37:31;1.60;;;0.57;;
20397;SDS011;10358;49.590;11.030;2024-02-23T01:39:57;4.17;;;0.60;;
20397;SDS011;10358;49.590;11.030;2024-02-23T01:42:24;1.23;;;0.40;;
20397;SDS011;10358;49.590;11.030;2024-02-23T01:44:50;2.07;;;0.50;;
20397;SDS011;10358;49.590;11.030;2024-02-23T01:47:16;1.80;;;0.57;;
20397;SDS011;10358;49.590;11.030;2024-02-23T01:49:42;0.70;;;0.40;;
20397;SDS011;10358;49.590;11.030;2024-02-23T01:52:12;1.00;;;0.50;;
20397;SDS011;10358;49.590;11.030;2024-02-23T01:54:39;2.87;;;0.57;;
20397;SDS011;10358;49.590;11.030;2024-02-23T01:57:05;2.10;;;0.70;;
20397;SDS011;10358;49.590;11.030;2024-02-23T01:59:31;0.90;;;0.60;;
20397;SDS011;10358;49.590;11.030;2024-02-23T02:01:57;1.37;;;0.70;;
20397;SDS011;10358;49.590;11.030;2024-02-23T02:04:23;2.77;;;0.60;;
20397;SDS011;10358;49.590;11.030;2024-02-23T02:06:48;1.80;;;0.60;;
20397;SDS011;10358;49.590;11.030;2024-02-23T02:09:14;6.00;;;0.60;;
20397;SDS011;10358;49.590;11.030;2024-02-23T02:11:46;2.20;;;0.90;;
20397;SDS011;10358;49.590;11.030;2024-02-23T02:14:13;1.87;;;0.60;;
20397;SDS011;10358;49.590;11.030;2024-02-23T02:16:39;2.73;;;0.50;;
20397;SDS011;10358;49.590;11.030;2024-02-23T02:19:04;3.70;;;0.60;;
20397;SDS011;10358;49.590;11.030;2024-02-23T02:21:31;1.00;;;0.60;;
20397;SDS011;10358;49.590;11.030;2024-02-23T02:23:57;3.83;;;0.63;;
20397;SDS011;10358;49.590;11.030;2024-02-23T02:26:22;1.07;;;0.40;;
20397;SDS011;10358;49.590;11.030;2024-02-23T02:28:48;1.53;;;0.77;;
20397;SDS011;10358;49.590;11.030;2024-02-23T02:31:15;2.37;;;0.50;;
20397;SDS011;10358;49.590;11.030;2024-02-23T02:33:40;1.07;;;0.70;;
20397;SDS011;10358;49.590;11.030;2024-02-23T02:36:06;2.13;;;0.67;;
20397;SDS011;10358;49.590;11.030;2024-02-23T02:38:32;1.60;;;0.70;;
20397;SDS011;10358;49.590;11.030;2024-02-23T02:41:00;2.00;;;0.60;;
20397;SDS011;10358;49.590;11.030;2024-02-23T02:43:26;2.23;;;0.70;;
20397;SDS011;10358;49.590;11.030;2024-02-23T02:45:52;2.80;;;0.70;;
20397;SDS011;10358;49.590;11.030;2024-02-23T02:48:17;3.10;;;0.90;;
20397;SDS011;10358;49.590;11.030;2024-02-23T02:50:43;3.10;;;0.97;;
20397;SDS011;10358;49.590;11.030;2024-02-23T02:53:09;2.13;;;0.70;;
20397;SDS011;10358;49.590;11.030;2024-02-23T02:55:35;2.63;;;0.60;;
20397;SDS011;10358;49.590;11.030;2024-02-23T02:58:01;3.20;;;0.70;;
20397;SDS011;10358;49.590;11.030;2024-02-23T03:00:27;3.87;;;0.80;;
20397;SDS011;10358;49.590;11.030;2024-02-23T03:02:52;4.47;;;1.20;;
20397;SDS011;10358;49.590;11.030;2024-02-23T03:05:18;4.77;;;0.87;;
20397;SDS011;10358;49.590;11.030;2024-02-23T03:07:44;3.00;;;0.80;;
20397;SDS011;10358;49.590;11.030;2024-02-23T03:10:09;5.70;;;1.37;;
20397;SDS011;10358;49.590;11.030;2024-02-23T03:12:35;4.57;;;0.93;;
20397;SDS011;10358;49.590;11.030;2024-02-23T03:15:00;4.40;;;0.87;;
20397;SDS011;10358;49.590;11.030;2024-02-23T03:17:27;2.37;;;0.70;;
20397;SDS011;10358;49.590;11.030;2024-02-23T03:19:53;4.23;;;0.90;;
20397;SDS011;10358;49.590;11.030;2024-02-23T03:22:19;3.20;;;1.10;;
20397;SDS011;10358;49.590;11.030;2024-02-23T03:24:44;3.23;;;0.90;;
20397;SDS011;10358;49.590;11.030;2024-02-23T03:27:10;5.87;;;0.83;;
20397;SDS011;10358;49.590;11.030;2024-02-23T03:29:37;7.70;;;1.10;;
20397;SDS011;10358;49.590;11.030;2024-02-23T03:32:03;5.90;;;1.00;;
20397;SDS011;10358;49.590;11.030;2024-02-23T03:34:29;2.93;;;0.80;;
20397;SDS011;10358;49.590;11.030;2024-02-23T03:36:54;3.30;;;0.87;;
20397;SDS011;10358;49.590;11.030;2024-02-23T03:39:20;5.80;;;1.00;;
20397;SDS011;10358;49.590;11.030;2024-02-23T03:41:46;5.00;;;0.90;;
20397;SDS011;10358;49.590;11.030;2024-02-23T03:44:11;2.67;;;0.90;;
20397;SDS011;10358;49.590;11.030;2024-02-23T03:46:37;2.70;;;0.70;;
20397;SDS011;10358;49.590;11.030;2024-02-23T03:49:02;6.70;;;1.00;;
20397;SDS011;10358;49.590;11.030;2024-02-23T03:51:28;4.80;;;1.10;;
20397;SDS011;10358;49.590;11.030;2024-02-23T03:53:54;5.07;;;0.97;;
20397;SDS011;10358;49.590;11.030;2024-02-23T03:56:20;5.23;;;0.93;;
20397;SDS011;10358;49.590;11.030;2024-02-23T03:58:46;5.03;;;1.13;;
20397;SDS011;10358;49.590;11.030;2024-02-23T04:01:13;4.30;;;1.03;;
20397;SDS011;10358;49.590;11.030;2024-02-23T04:03:38;4.90;;;1.10;;
20397;SDS011;10358;49.590;11.030;2024-02-23T04:06:05;6.17;;;1.20;;
20397;SDS011;10358;49.590;11.030;2024-02-23T04:08:31;4.27;;;1.07;;
20397;SDS011;10358;49.590;11.030;2024-02-23T04:10:57;6.73;;;0.90;;
20397;SDS011;10358;49.590;11.030;2024-02-23T04:13:23;4.43;;;0.90;;
20397;SDS011;10358;49.590;11.030;2024-02-23T04:15:49;6.30;;;1.20;;
20397;SDS011;10358;49.590;11.030;2024-02-23T04:18:14;7.63;;;1.00;;
20397;SDS011;10358;49.590;11.030;2024-02-23T04:20:40;2.30;;;0.90;;
20397;SDS011;10358;49.590;11.030;2024-02-23T04:23:06;6.03;;;1.10;;
20397;SDS011;10358;49.590;11.030;2024-02-23T04:25:32;3.40;;;1.00;;
20397;SDS011;10358;49.590;11.030;2024-02-23T04:27:57;3.93;;;1.00;;
20397;SDS011;10358;49.590;11.030;2024-02-23T04:30:23;6.03;;;1.27;;
20397;SDS011;10358;49.590;11.030;2024-02-23T04:32:49;6.53;;;1.10;;
20397;SDS011;10358;49.590;11.030;2024-02-23T04:35:15;4.00;;;0.93;;
20397;SDS011;10358;49.590;11.030;2024-02-23T04:37:43;4.87;;;0.90;;
20397;SDS011;10358;49.590;11.030;2024-02-23T04:40:10;6.70;;;1.10;;
20397;SDS011;10358;49.590;11.030;2024-02-23T04:42:36;3.70;;;0.90;;
20397;SDS011;10358;49.590;11.030;2024-02-23T04:45:01;5.70;;;1.10;;
20397;SDS011;10358;49.590;11.030;2024-02-23T04:47:27;7.30;;;1.10;;
20397;SDS011;10358;49.590;11.030;2024-02-23T04:49:53;4.80;;;1.10;;
20397;SDS011;10358;49.590;11.030;2024-02-23T04:52:20;5.73;;;1.00;;
20397;SDS011;10358;49.590;11.030;2024-02-23T04:54:46;4.37;;;0.90;;
20397;SDS011;10358;49.590;11.030;2024-02-23T04:57:11;6.17;;;1.00;;
20397;SDS011;10358;49.590;11.030;2024-02-23T04:59:37;10.67;;;1.33;;
20397;SDS011;10358;49.590;11.030;2024-02-23T05:02:02;2.53;;;1.03;;
20397;SDS011;10358;49.590;11.030;2024-02-23T05:04:28;4.37;;;0.93;;
20397;SDS011;10358;49.590;11.030;2024-02-23T05:06:54;3.07;;;0.83;;
20397;SDS011;10358;49.590;11.030;2024-02-23T05:09:19;6.73;;;1.10;;
20397;SDS011;10358;49.590;11.030;2024-02-23T05:11:45;4.60;;;0.97;;
20397;SDS011;10358;49.590;11.030;2024-02-23T05:14:12;7.37;;;1.20;;
20397;SDS011;10358;49.590;11.030;2024-02-23T05:16:38;5.30;;;1.10;;
20397;SDS011;10358;49.590;11.030;2024-02-23T05:19:03;5.73;;;0.97;;
20397;SDS011;10358;49.590;11.030;2024-02-23T05:21:29;5.00;;;1.00;;
20397;SDS011;10358;49.590;11.030;2024-02-23T05:23:54;6.17;;;1.10;;
20397;SDS011;10358;49.590;11.030;2024-02-23T05:26:20;4.50;;;1.10;;
20397;SDS011;10358;49.590;11.030;2024-02-23T05:28:45;5.50;;;1.00;;
20397;SDS011;10358;49.590;11.030;2024-02-23T05:31:12;6.47;;;1.20;;
20397;SDS011;10358;49.590;11.030;2024-02-23T05:33:38;5.23;;;1.00;;
20397;SDS011;10358;49.590;11.030;2024-02-23T05:36:04;5.63;;;1.00;;
20397;SDS011;10358;49.590;11.030;2024-02-23T05:38:30;4.53;;;0.90;;
20397;SDS011;10358;49.590;11.030;2024-02-23T05:40:56;5.53;;;1.00;;
20397;SDS011;10358;49.590;11.030;2024-02-23T05:43:21;3.60;;;1.00;;
20397;SDS011;10358;49.590;11.030;2024-02-23T05:45:47;3.83;;;1.00;;
20397;SDS011;10358;49.590;11.030;2024-02-23T05:48:13;4.93;;;1.00;;
20397;SDS011;10358;49.590;11.030;2024-02-23T05:50:40;7.60;;;1.43;;
20397;SDS011;10358;49.590;11.030;2024-02-23T05:53:05;5.83;;;1.10;;
20397;SDS011;10358;49.590;11.030;2024-02-23T05:55:32;5.73;;;1.10;;
20397;SDS011;10358;49.590;11.030;2024-02-23T05:57:58;4.67;;;0.90;;
20397;SDS011;10358;49.590;11.030;2024-02-23T06:00:24;3.63;;;1.20;;
20397;SDS011;10358;49.590;11.030;2024-02-23T06:02:50;4.50;;;1.17;;
20397;SDS011;10358;49.590;11.030;2024-02-23T06:05:15;3.70;;;1.10;;
20397;SDS011;10358;49.590;11.030;2024-02-23T06:07:41;4.30;;;1.17;;
20397;SDS011;10358;49.590;11.030;2024-02-23T06:10:06;5.00;;;1.00;;
20397;SDS011;10358;49.590;11.030;2024-02-23T06:12:32;5.43;;;1.27;;
20397;SDS011;10358;49.590;11.030;2024-02-23T06:14:58;3.33;;;1.00;;
20397;SDS011;10358;49.590;11.030;2024-02-23T06:17:24;4.37;;;1.10;;
20397;SDS011;10358;49.590;11.030;2024-02-23T06:19:49;1.80;;;0.77;;
20397;SDS011;10358;49.590;11.030;2024-02-23T06:22:16;4.50;;;1.00;;
20397;SDS011;10358;49.590;11.030;2024-02-23T06:24:46;6.77;;;1.23;;
20397;SDS011;10358;49.590;11.030;2024-02-23T06:27:12;8.03;;;1.30;;
20397;SDS011;10358;49.590;11.030;2024-02-23T06:29:38;4.10;;;1.07;;
20397;SDS011;10358;49.590;11.030;2024-02-23T06:32:03;5.57;;;1.10;;
20397;SDS011;10358;49.590;11.030;2024-02-23T06:34:29;6.07;;;1.30;;
20397;SDS011;10358;49.590;11.030;2024-02-23T06:36:55;4.77;;;1.30;;
20397;SDS011;10358;49.590;11.030;2024-02-23T06:39:20;7.23;;;1.13;;
20397;SDS011;10358;49.590;11.030;2024-02-23T06:41:46;3.63;;;1.30;;
20397;SDS011;10358;49.590;11.030;2024-02-23T06:44:12;6.80;;;1.50;;
20397;SDS011;10358;49.590;11.030;2024-02-23T06:46:37;4.70;;;1.07;;
20397;SDS011;10358;49.590;11.030;2024-02-23T06:49:03;3.03;;;0.97;;
20397;SDS011;10358;49.590;11.030;2024-02-23T06:51:29;3.27;;;1.10;;
20397;SDS011;10358;49.590;11.030;2024-02-23T06:53:56;3.43;;;0.93;;
20397;SDS011;10358;49.590;11.030;2024-02-23T06:56:22;6.30;;;1.07;;
20397;SDS011;10358;49.590;11.030;2024-02-23T06:58:47;4.77;;;1.17;;
20397;SDS011;10358;49.590;11.030;2024-02-23T07:01:13;3.40;;;1.20;;
20397;SDS011;10358;49.590;11.030;2024-02-23T07:03:39;7.93;;;1.20;;
20397;SDS011;10358;49.590;11.030;2024-02-23T07:06:07;6.10;;;1.10;;
20397;SDS011;10358;49.590;11.030;2024-02-23T07:08:35;7.43;;;1.23;;
20397;SDS011;10358;49.590;11.030;2024-02-23T07:11:02;4.27;;;1.10;;
20397;SDS011;10358;49.590;11.030;2024-02-23T07:13:28;4.17;;;1.20;;
20397;SDS011;10358;49.590;11.030;2024-02-23T07:15:54;3.13;;;1.10;;
20397;SDS011;10358;49.590;11.030;2024-02-23T07:18:21;5.27;;;0.87;;
20397;SDS011;10358;49.590;11.030;2024-02-23T07:20:46;3.77;;;1.10;;
20397;SDS011;10358;49.590;11.030;2024-02-23T07:23:12;6.60;;;0.90;;
20397;SDS011;10358;49.590;11.030;2024-02-23T07:25:38;5.00;;;1.20;;
20397;SDS011;10358;49.590;11.030;2024-02-23T07:28:03;3.83;;;1.00;;
20397;SDS011;10358;49.590;11.030;2024-02-23T07:30:29;4.93;;;1.30;;
20397;SDS011;10358;49.590;11.030;2024-02-23T07:32:55;3.17;;;1.13;;
20397;SDS011;10358;49.590;11.030;2024-02-23T07:35:20;3.87;;;1.00;;
20397;SDS011;10358;49.590;11.030;2024-02-23T07:37:46;5.60;;;1.10;;
20397;SDS011;10358;49.590;11.030;2024-02-23T07:40:14;5.13;;;1.13;;
20397;SDS011;10358;49.590;11.030;2024-02-23T07:42:39;7.93;;;1.10;;
20397;SDS011;10358;49.590;11.030;2024-02-23T07:45:05;2.90;;;1.10;;
20397;SDS011;10358;49.590;11.030;2024-02-23T07:47:32;5.60;;;1.20;;
20397;SDS011;10358;49.590;11.030;2024-02-23T07:49:58;4.33;;;1.23;;
20397;SDS011;10358;49.590;11.030;2024-02-23T07:52:24;5.27;;;0.87;;
20397;SDS011;10358;49.590;11.030;2024-02-23T07:54:51;2.77;;;0.97;;
20397;SDS011;10358;49.590;11.030;2024-02-23T07:57:17;6.43;;;1.67;;
20397;SDS011;10358;49.590;11.030;2024-02-23T07:59:43;4.13;;;1.10;;
20397;SDS011;10358;49.590;11.030;2024-02-23T08:02:09;2.50;;;0.83;;
20397;SDS011;10358;49.590;11.030;2024-02-23T08:04:34;5.93;;;1.13;;
20397;SDS011;10358;49.590;11.030;2024-02-23T08:07:00;5.07;;;1.10;;
20397;SDS011;10358;49.590;11.030;2024-02-23T08:09:26;5.40;;;1.20;;
20397;SDS011;10358;49.590;11.030;2024-02-23T08:11:52;6.00;;;1.13;;
20397;SDS011;10358;49.590;11.030;2024-02-23T08:14:17;1.73;;;0.97;;
20397;SDS011;10358;49.590;11.030;2024-02-23T08:16:43;3.60;;;1.13;;
20397;SDS011;10358;49.590;11.030;2024-02-23T08:19:08;4.73;;;0.90;;
20397;SDS011;10358;49.590;11.030;2024-02-23T08:21:34;3.47;;;1.03;;
20397;SDS011;10358;49.590;11.030;2024-02-23T08:23:59;3.97;;;1.20;;
20397;SDS011;10358;49.590;11.030;2024-02-23T08:26:25;2.33;;;0.90;;
20397;SDS011;10358;49.590;11.030;2024-02-23T08:28:50;4.50;;;1.30;;
20397;SDS011;10358;49.590;11.030;2024-02-23T08:31:16;2.23;;;1.00;;
20397;SDS011;10358;49.590;11.030;2024-02-23T08:33:41;3.80;;;0.90;;
20397;SDS011;10358;49.590;11.030;2024-02-23T08:36:07;2.70;;;0.90;;
20397;SDS011;10358;49.590;11.030;2024-02-23T08:38:33;4.77;;;1.20;;
20397;SDS011;10358;49.590;11.030;2024-02-23T08:40:58;1.67;;;0.90;;
20397;SDS011;10358;49.590;11.030;2024-02-23T08:43:24;2.73;;;0.93;;
20397;SDS011;10358;49.590;11.030;2024-02-23T08:45:49;2.90;;;0.90;;
20397;SDS011;10358;49.590;11.030;2024-02-23T08:48:15;3.63;;;0.93;;
20397;SDS011;10358;49.590;11.030;2024-02-23T08:50:41;7.53;;;1.23;;
20397;SDS011;10358;49.590;11.030;2024-02-23T08:53:06;3.00;;;1.10;;
20397;SDS011;10358;49.590;11.030;2024-02-23T08:55:32;6.33;;;0.90;;
20397;SDS011;10358;49.590;11.030;2024-02-23T08:57:58;2.70;;;0.87;;
20397;SDS011;10358;49.590;11.030;2024-02-23T09:00:24;5.07;;;1.47;;
20397;SDS011;10358;49.590;11.030;2024-02-23T09:02:49;2.20;;;0.80;;
20397;SDS011;10358;49.590;11.030;2024-02-23T09:05:15;2.50;;;0.80;;
20397;SDS011;10358;49.590;11.030;2024-02-23T09:07:41;1.60;;;0.73;;
20397;SDS011;10358;49.590;11.030;2024-02-23T09:10:06;3.80;;;0.83;;
20397;SDS011;10358;49.590;11.030;2024-02-23T09:12:33;2.83;;;1.00;;
20397;SDS011;10358;49.590;11.030;2024-02-23T09:14:59;5.70;;;1.80;;
20397;SDS011;10358;49.590;11.030;2024-02-23T09:17:25;2.60;;;1.03;;
20397;SDS011;10358;49.590;11.030;2024-02-23T09:19:50;3.07;;;1.00;;
20397;SDS011;10358;49.590;11.030;2024-02-23T09:22:17;3.60;;;1.00;;
20397;SDS011;10358;49.590;11.030;2024-02-23T09:24:43;2.70;;;0.80;;
20397;SDS011;10358;49.590;11.030;2024-02-23T09:27:09;4.03;;;0.90;;
20397;SDS011;10358;49.590;11.030;2024-02-23T09:29:34;5.87;;;1.17;;
20397;SDS011;10358;49.590;11.030;2024-02-23T09:32:00;5.90;;;1.10;;
20397;SDS011;10358;49.590;11.030;2024-02-23T09:34:27;3.50;;;0.80;;
20397;SDS011;10358;49.590;11.030;2024-02-23T09:36:54;5.17;;;1.00;;
20397;SDS011;10358;49.590;11.030;2024-02-23T09:39:19;4.70;;;1.03;;
20397;SDS011;10358;49.590;11.030;2024-02-23T09:41:49;3.63;;;1.07;;
20397;SDS011;10358;49.590;11.030;2024-02-23T09:44:15;5.53;;;1.07;;
20397;SDS011;10358;49.590;11.030;2024-02-23T09:46:43;5.30;;;1.10;;
20397;SDS011;10358;49.590;11.030;2024-02-23T09:49:10;3.07;;;1.03;;
20397;SDS011;10358;49.590;11.030;2024-02-23T09:51:37;6.97;;;1.07;;
20397;SDS011;10358;49.590;11.030;2024-02-23T09:54:04;4.03;;;1.20;;
20397;SDS011;10358;49.590;11.030;2024-02-23T09:56:30;3.53;;;0.90;;
20397;SDS011;10358;49.590;11.030;2024-02-23T09:58:56;3.37;;;0.90;;
20397;SDS011;10358;49.590;11.030;2024-02-23T10:01:26;1.63;;;0.80;;
20397;SDS011;10358;49.590;11.030;2024-02-23T10:03:55;4.03;;;0.87;;
20397;SDS011;10358;49.590;11.030;2024-02-23T10:06:29;5.17;;;0.90;;
20397;SDS011;10358;49.590;11.030;2024-02-23T10:08:55;2.77;;;0.80;;
20397;SDS011;10358;49.590;11.030;2024-02-23T10:11:21;3.70;;;1.17;;
20397;SDS011;10358;49.590;11.030;2024-02-23T10:13:50;3.47;;;1.00;;
20397;SDS011;10358;49.590;11.030;2024-02-23T10:16:17;2.30;;;0.93;;
20397;SDS011;10358;49.590;11.030;2024-02-23T10:18:45;3.73;;;1.07;;
20397;SDS011;10358;49.590;11.030;2024-02-23T10:21:11;2.33;;;0.90;;
20397;SDS011;10358;49.590;11.030;2024-02-23T10:23:37;3.13;;;1.00;;
20397;SDS011;10358;49.590;11.030;2024-02-23T10:26:04;5.03;;;1.20;;
20397;SDS011;10358;49.590;11.030;2024-02-23T10:28:31;3.13;;;0.80;;
20397;SDS011;10358;49.590;11.030;2024-02-23T10:30:57;2.27;;;0.90;;
20397;SDS011;10358;49.590;11.030;2024-02-23T10:33:22;3.50;;;0.80;;
20397;SDS011;10358;49.590;11.030;2024-02-23T10:35:51;3.17;;;1.10;;
20397;SDS011;10358;49.590;11.030;2024-02-23T10:38:22;2.90;;;0.90;;
20397;SDS011;10358;49.590;11.030;2024-02-23T10:40:48;4.07;;;1.07;;
20397;SDS011;10358;49.590;11.030;2024-02-23T10:43:16;2.67;;;0.80;;
20397;SDS011;10358;49.590;11.030;2024-02-23T10:45:45;3.20;;;1.00;;
20397;SDS011;10358;49.590;11.030;2024-02-23T10:48:11;4.23;;;1.10;;
20397;SDS011;10358;49.590;11.030;2024-02-23T10:50:39;4.00;;;1.10;;
20397;SDS011;10358;49.590;11.030;2024-02-23T10:53:06;3.00;;;1.20;;
20397;SDS011;10358;49.590;11.030;2024-02-23T10:55:33;2.97;;;0.90;;
20397;SDS011;10358;49.590;11.030;2024-02-23T10:58:02;2.93;;;0.80;;
20397;SDS011;10358;49.590;11.030;2024-02-23T11:00:28;2.77;;;0.90;;
20397;SDS011;10358;49.590;11.030;2024-02-23T11:02:54;2.40;;;0.97;;
20397;SDS011;10358;49.590;11.030;2024-02-23T11:05:20;3.70;;;0.80;;
20397;SDS011;10358;49.590;11.030;2024-02-23T11:07:47;1.93;;;0.83;;
20397;SDS011;10358;49.590;11.030;2024-02-23T11:10:17;5.13;;;1.10;;
20397;SDS011;10358;49.590;11.030;2024-02-23T11:12:56;3.00;;;1.10;;
20397;SDS011;10358;49.590;11.030;2024-02-23T11:15:25;1.93;;;0.90;;
20397;SDS011;10358;49.590;11.030;2024-02-23T11:17:51;5.00;;;0.70;;
20397;SDS011;10358;49.590;11.030;2024-02-23T11:20:17;1.60;;;0.90;;
20397;SDS011;10358;49.590;11.030;2024-02-23T11:22:43;2.67;;;1.00;;
20397;SDS011;10358;49.590;11.030;2024-02-23T11:25:08;3.20;;;1.00;;
20397;SDS011;10358;49.590;11.030;2024-02-23T11:27:35;3.93;;;0.93;;
20397;SDS011;10358;49.590;11.030;2024-02-23T11:30:03;2.67;;;1.07;;
20397;SDS011;10358;49.590;11.030;2024-02-23T11:32:39;2.83;;;1.00;;
20397;SDS011;10358;49.590;11.030;2024-02-23T11:35:15;4.87;;;1.40;;
20397;SDS011;10358;49.590;11.030;2024-02-23T11:37:56;2.37;;;1.00;;
20397;SDS011;10358;49.590;11.030;2024-02-23T11:40:28;4.47;;;0.90;;
20397;SDS011;10358;49.590;11.030;2024-02-23T11:42:55;3.33;;;0.93;;
20397;SDS011;10358;49.590;11.030;2024-02-23T11:45:21;2.93;;;0.83;;
20397;SDS011;10358;49.590;11.030;2024-02-23T11:47:47;7.10;;;1.33;;
20397;SDS011;10358;49.590;11.030;2024-02-23T11:50:13;3.17;;;0.93;;
20397;SDS011;10358;49.590;11.030;2024-02-23T11:52:40;1.83;;;0.80;;
20397;SDS011;10358;49.590;11.030;2024-02-23T11:55:05;6.20;;;1.17;;
20397;SDS011;10358;49.590;11.030;2024-02-23T11:57:33;4.50;;;1.00;;
20397;SDS011;10358;49.590;11.030;2024-02-23T12:00:02;3.23;;;1.33;;
20397;SDS011;10358;49.590;11.030;2024-02-23T12:02:30;2.87;;;1.10;;
20397;SDS011;10358;49.590;11.030;2024-02-23T12:04:55;4.43;;;1.20;;
20397;SDS011;10358;49.590;11.030;2024-02-23T12:07:21;4.67;;;0.80;;
20397;SDS011;10358;49.590;11.030;2024-02-23T12:09:47;2.17;;;0.90;;
20397;SDS011;10358;49.590;11.030;2024-02-23T12:12:13;3.67;;;0.90;;
20397;SDS011;10358;49.590;11.030;2024-02-23T12:14:40;3.73;;;1.20;;
20397;SDS011;10358;49.590;11.030;2024-02-23T12:17:07;4.77;;;1.10;;
20397;SDS011;10358;49.590;11.030;2024-02-23T12:19:37;3.93;;;1.10;;
20397;SDS011;10358;49.590;11.030;2024-02-23T12:22:06;2.40;;;0.70;;
20397;SDS011;10358;49.590;11.030;2024-02-23T12:24:32;3.13;;;0.90;;
20397;SDS011;10358;49.590;11.030;2024-02-23T12:26:57;2.60;;;0.97;;
20397;SDS011;10358;49.590;11.030;2024-02-23T12:29:24;1.50;;;0.80;;
20397;SDS011;10358;49.590;11.030;2024-02-23T12:31:50;2.47;;;0.90;;
20397;SDS011;10358;49.590;11.030;2024-02-23T12:34:17;3.50;;;0.90;;
20397;SDS011;10358;49.590;11.030;2024-02-23T12:36:45;2.23;;;0.70;;
20397;SDS011;10358;49.590;11.030;2024-02-23T12:39:11;2.10;;;0.80;;
20397;SDS011;10358;49.590;11.030;2024-02-23T12:41:37;2.87;;;1.27;;
20397;SDS011;10358;49.590;11.030;2024-02-23T12:44:02;4.97;;;1.33;;
20397;SDS011;10358;49.590;11.030;2024-02-23T12:46:28;2.57;;;0.97;;
20397;SDS011;10358;49.590;11.030;2024-02-23T12:48:54;1.50;;;0.80;;
20397;SDS011;10358;49.590;11.030;2024-02-23T12:51:19;1.97;;;0.80;;
20397;SDS011;10358;49.590;11.030;2024-02-23T12:53:50;1.93;;;1.13;;
20397;SDS011;10358;49.590;11.030;2024-02-23T12:56:16;3.10;;;1.00;;
20397;SDS011;10358;49.590;11.030;2024-02-23T12:58:44;2.63;;;0.80;;
20397;SDS011;10358;49.590;11.030;2024-02-23T13:01:10;3.70;;;0.87;;
20397;SDS011;10358;49.590;11.030;2024-02-23T13:03:36;2.30;;;0.80;;
20397;SDS011;10358;49.590;11.030;2024-02-23T13:06:03;1.80;;;0.87;;
20397;SDS011;10358;49.590;11.030;2024-02-23T13:08:29;3.03;;;1.30;;
20397;SDS011;10358;49.590;11.030;2024-02-23T13:10:56;2.03;;;0.97;;
20397;SDS011;10358;49.590;11.030;2024-02-23T13:13:22;3.10;;;0.93;;
20397;SDS011;10358;49.590;11.030;2024-02-23T13:15:49;2.07;;;0.83;;
20397;SDS011;10358;49.590;11.030;2024-02-23T13:18:15;3.13;;;0.90;;
20397;SDS011;10358;49.590;11.030;2024-02-23T13:20:40;1.40;;;0.90;;
20397;SDS011;10358;49.590;11.030;2024-02-23T13:23:06;3.73;;;1.57;;
20397;SDS011;10358;49.590;11.030;2024-02-23T13:25:33;1.63;;;0.83;;
20397;SDS011;10358;49.590;11.030;2024-02-23T13:28:02;3.20;;;1.07;;
20397;SDS011;10358;49.590;11.030;2024-02-23T13:30:29;4.17;;;1.00;;
20397;SDS011;10358;49.590;11.030;2024-02-23T13:32:55;1.80;;;0.70;;
20397;SDS011;10358;49.590;11.030;2024-02-23T13:35:20;2.90;;;1.00;;
20397;SDS011;10358;49.590;11.030;2024-02-23T13:37:46;3.40;;;0.93;;
20397;SDS011;10358;49.590;11.030;2024-02-23T13:40:14;2.50;;;0.90;;
20397;SDS011;10358;49.590;11.030;2024-02-23T13:42:39;3.07;;;0.90;;
20397;SDS011;10358;49.590;11.030;2024-02-23T13:45:08;1.37;;;0.80;;
20397;SDS011;10358;49.590;11.030;2024-02-23T13:47:34;3.87;;;0.73;;
20397;SDS011;10358;49.590;11.030;2024-02-23T13:50:03;3.27;;;0.97;;
20397;SDS011;10358;49.590;11.030;2024-02-23T13:52:32;2.00;;;0.90;;
20397;SDS011;10358;49.590;11.030;2024-02-23T13:54:57;5.40;;;0.77;;
20397;SDS011;10358;49.590;11.030;2024-02-23T13:57:23;1.30;;;0.80;;
20397;SDS011;10358;49.590;11.030;2024-02-23T13:59:48;3.57;;;0.90;;
20397;SDS011;10358;49.590;11.030;2024-02-23T14:02:16;4.20;;;0.90;;
20397;SDS011;10358;49.590;11.030;2024-02-23T14:04:43;2.37;;;1.03;;
20397;SDS011;10358;49.590;11.030;2024-02-23T14:07:10;3.23;;;0.87;;
20397;SDS011;10358;49.590;11.030;2024-02-23T14:09:35;3.53;;;0.90;;
20397;SDS011;10358;49.590;11.030;2024-02-23T14:12:01;3.07;;;0.80;;
20397;SDS011;10358;49.590;11.030;2024-02-23T14:14:27;3.90;;;0.83;;
20397;SDS011;10358;49.590;11.030;2024-02-23T14:16:53;2.70;;;0.97;;
20397;SDS011;10358;49.590;11.030;2024-02-23T14:19:19;3.73;;;0.90;;
20397;SDS011;10358;49.590;11.030;2024-02-23T14:21:45;3.10;;;0.80;;
20397;SDS011;10358;49.590;11.030;2024-02-23T14:24:13;3.77;;;1.00;;
20397;SDS011;10358;49.590;11.030;2024-02-23T14:26:39;2.90;;;1.30;;